createdAt,value
2019-01-03T00:00:22.428Z,8.83
2019-01-03T00:03:07.441Z,7.87
2019-01-03T00:05:55.889Z,8.87
2019-01-03T00:08:44.018Z,8.80
2019-01-03T00:11:32.165Z,8.97
2019-01-03T00:14:20.325Z,9.07
2019-01-03T00:17:08.736Z,8.90
2019-01-03T00:19:56.881Z,8.27
2019-01-03T00:22:45.295Z,9.80
2019-01-03T00:25:33.985Z,8.83
2019-01-03T00:28:22.538Z,8.80
2019-01-03T00:31:10.990Z,9.40
2019-01-03T00:33:59.143Z,9.63
2019-01-03T00:36:43.346Z,10.63
2019-01-03T00:39:31.747Z,9.83
2019-01-03T00:42:19.937Z,8.80
2019-01-03T00:45:08.366Z,9.13
2019-01-03T00:47:56.827Z,8.57
2019-01-03T00:50:44.947Z,8.20
2019-01-03T00:53:33.463Z,7.60
2019-01-03T00:56:21.591Z,8.80
2019-01-03T00:59:10.029Z,8.13
2019-01-03T01:01:58.480Z,7.53
2019-01-03T01:04:46.933Z,7.93
2019-01-03T01:07:35.213Z,7.23
2019-01-03T01:10:23.775Z,8.03
2019-01-03T01:13:12.192Z,7.97
2019-01-03T01:16:00.338Z,8.70
2019-01-03T01:18:48.603Z,8.27
2019-01-03T01:21:30.089Z,8.30
2019-01-03T01:24:18.239Z,8.93
2019-01-03T01:27:06.356Z,8.13
2019-01-03T01:29:54.804Z,8.73
2019-01-03T01:32:42.943Z,9.87
2019-01-03T01:35:31.648Z,10.77
2019-01-03T01:38:19.779Z,11.50
2019-01-03T01:41:07.978Z,11.10
2019-01-03T01:43:56.121Z,10.93
2019-01-03T01:46:44.289Z,10.30
2019-01-03T01:49:32.469Z,9.13
2019-01-03T01:52:20.854Z,8.90
2019-01-03T01:55:09.298Z,8.33
2019-01-03T01:57:59.465Z,8.30
2019-01-03T02:00:47.912Z,8.20
2019-01-03T02:03:36.296Z,9.43
2019-01-03T02:06:24.483Z,8.70
2019-01-03T02:09:12.606Z,8.30
2019-01-03T02:12:01.405Z,8.17
2019-01-03T02:14:49.836Z,8.70
2019-01-03T02:17:38.262Z,8.03
2019-01-03T02:20:26.396Z,9.63
2019-01-03T02:23:14.869Z,8.50
2019-01-03T02:25:59.916Z,8.53
2019-01-03T02:28:48.098Z,7.90
2019-01-03T02:31:36.529Z,8.80
2019-01-03T02:34:24.896Z,9.10
2019-01-03T02:37:13.604Z,8.57
2019-01-03T02:40:01.726Z,8.23
2019-01-03T02:42:50.556Z,9.17
2019-01-03T02:45:38.979Z,8.57
2019-01-03T02:48:27.396Z,8.70
2019-01-03T02:51:15.511Z,8.80
2019-01-03T02:54:04.269Z,8.60
2019-01-03T02:56:52.406Z,8.07
2019-01-03T02:59:40.829Z,8.93
2019-01-03T03:02:29.230Z,9.50
2019-01-03T03:05:17.372Z,9.73
2019-01-03T03:08:05.794Z,9.47
2019-01-03T03:10:53.913Z,10.07
2019-01-03T03:13:42.101Z,9.83
2019-01-03T03:16:30.238Z,9.63
2019-01-03T03:19:19.098Z,9.50
2019-01-03T03:22:07.236Z,9.13
2019-01-03T03:24:55.662Z,8.27
2019-01-03T03:27:44.066Z,8.90
2019-01-03T03:30:32.243Z,7.67
2019-01-03T03:33:20.396Z,8.57
2019-01-03T03:36:03.351Z,8.67
2019-01-03T03:38:51.501Z,8.60
2019-01-03T03:41:39.923Z,8.23
2019-01-03T03:44:28.062Z,7.30
2019-01-03T03:47:16.188Z,7.37
2019-01-03T03:50:04.616Z,7.90
2019-01-03T03:52:52.754Z,7.17
2019-01-03T03:55:33.828Z,7.47
2019-01-03T03:58:22.215Z,8.00
2019-01-03T04:01:10.393Z,6.97
2019-01-03T04:03:58.871Z,7.73
2019-01-03T04:06:47.358Z,7.53
2019-01-03T04:09:36.055Z,7.93
2019-01-03T04:12:24.211Z,7.30
2019-01-03T04:15:12.646Z,7.83
2019-01-03T04:18:01.358Z,7.57
2019-01-03T04:20:49.492Z,7.90
2019-01-03T04:23:38.185Z,7.90
2019-01-03T04:26:26.725Z,9.80
2019-01-03T04:29:14.843Z,7.43
2019-01-03T04:32:02.206Z,8.23
2019-01-03T04:34:50.329Z,9.50
2019-01-03T04:37:38.474Z,11.30
2019-01-03T04:40:23.204Z,12.27
2019-01-03T04:43:11.653Z,13.23
2019-01-03T04:45:59.787Z,13.57
2019-01-03T04:48:36.690Z,14.17
2019-01-03T04:51:24.841Z,12.33
2019-01-03T04:54:13.270Z,10.87
2019-01-03T04:57:01.807Z,10.23
2019-01-03T04:59:49.921Z,8.33
2019-01-03T05:02:38.089Z,8.83
2019-01-03T05:05:26.650Z,9.57
2019-01-03T05:08:15.376Z,10.13
2019-01-03T05:11:03.499Z,9.37
2019-01-03T05:13:48.398Z,9.53
2019-01-03T05:16:36.799Z,9.60
2019-01-03T05:19:25.228Z,9.10
2019-01-03T05:22:13.374Z,9.83
2019-01-03T05:25:01.793Z,8.17
2019-01-03T05:27:49.898Z,8.80
2019-01-03T05:30:38.652Z,8.50
2019-01-03T05:33:23.442Z,7.57
2019-01-03T05:36:12.138Z,8.20
2019-01-03T05:39:00.297Z,8.60
2019-01-03T05:41:48.478Z,7.20
2019-01-03T05:44:37.008Z,7.87
2019-01-03T05:47:25.433Z,8.83
2019-01-03T05:50:11.248Z,8.27
2019-01-03T05:52:59.699Z,9.17
2019-01-03T05:55:48.118Z,9.23
2019-01-03T05:58:36.259Z,8.77
2019-01-03T06:01:24.421Z,7.83
2019-01-03T06:04:05.313Z,8.33
2019-01-03T06:06:53.502Z,9.20
2019-01-03T06:09:41.924Z,8.50
2019-01-03T06:12:30.049Z,8.87
2019-01-03T06:15:18.501Z,9.17
2019-01-03T06:18:06.658Z,8.80
2019-01-03T06:20:55.081Z,9.77
2019-01-03T06:23:43.220Z,10.17
2019-01-03T06:26:31.366Z,8.80
2019-01-03T06:29:19.907Z,9.50
2019-01-03T06:32:08.082Z,9.10
2019-01-03T06:34:56.504Z,10.43
2019-01-03T06:37:44.954Z,9.30
2019-01-03T06:40:25.390Z,8.67
2019-01-03T06:43:13.841Z,10.60
2019-01-03T06:46:02.000Z,10.20
2019-01-03T06:48:50.133Z,10.30
2019-01-03T06:51:38.844Z,9.93
2019-01-03T06:54:27.274Z,9.30
2019-01-03T06:57:15.435Z,10.60
2019-01-03T06:59:57.519Z,11.07
2019-01-03T07:02:45.663Z,10.83
2019-01-03T07:05:34.152Z,10.53
2019-01-03T07:11:14.809Z,9.03
2019-01-03T08:01:53.184Z,8.87
2019-01-03T08:04:41.661Z,10.80
2019-01-03T08:07:30.105Z,9.17
2019-01-03T09:23:59.171Z,6.23
2019-01-03T09:26:47.630Z,6.67
2019-01-03T09:29:31.180Z,6.37
2019-01-03T09:32:19.640Z,6.10
2019-01-03T09:35:07.754Z,7.27
2019-01-03T09:55:33.686Z,8.67
2019-01-03T09:58:03.249Z,7.93
2019-01-03T10:00:32.692Z,7.73
2019-01-03T10:03:01.897Z,7.27
2019-01-03T10:05:31.132Z,6.77
2019-01-03T10:08:00.349Z,7.53
2019-01-03T10:13:05.202Z,7.33
2019-01-03T10:15:34.544Z,6.50
2019-01-03T10:18:04.163Z,7.63
2019-01-03T10:20:33.841Z,7.57
2019-01-03T10:23:03.429Z,7.00
2019-01-03T10:25:32.684Z,6.80
2019-01-03T10:28:02.211Z,7.13
2019-01-03T10:30:32.005Z,7.53
2019-01-03T10:33:01.194Z,6.23
2019-01-03T10:35:31.047Z,6.80
2019-01-03T10:38:00.817Z,7.17
2019-01-03T10:40:30.041Z,7.77
2019-01-03T10:42:59.252Z,6.80
2019-01-03T10:45:29.136Z,6.73
2019-01-03T10:47:59.413Z,6.77
2019-01-03T10:50:29.586Z,7.37
2019-01-03T10:52:59.052Z,6.60
2019-01-03T10:55:28.269Z,7.10
2019-01-03T10:57:57.766Z,6.30
2019-01-03T11:00:27.453Z,6.73
2019-01-03T11:02:56.924Z,6.77
2019-01-03T11:05:26.494Z,6.60
2019-01-03T11:07:55.983Z,6.93
2019-01-03T11:10:25.176Z,6.83
2019-01-03T11:12:54.660Z,6.87
2019-01-03T11:15:23.881Z,7.73
2019-01-03T11:17:53.387Z,7.77
2019-01-03T11:20:22.858Z,7.20
2019-01-03T11:22:52.371Z,7.30
2019-01-03T11:25:21.852Z,8.43
2019-01-03T11:27:51.352Z,7.70
2019-01-03T11:30:21.283Z,8.23
2019-01-03T11:32:50.771Z,9.53
2019-01-03T11:35:20.249Z,8.00
2019-01-03T11:37:50.228Z,6.60
2019-01-03T11:40:19.693Z,6.63
2019-01-03T11:42:48.940Z,6.27
2019-01-03T11:45:18.388Z,6.70
2019-01-03T11:47:47.919Z,7.77
2019-01-03T11:50:17.125Z,7.70
2019-01-03T11:52:46.332Z,8.00
2019-01-03T11:55:16.217Z,7.90
2019-01-03T11:57:45.711Z,7.50
2019-01-03T12:00:15.191Z,6.53
2019-01-03T12:02:44.415Z,7.43
2019-01-03T12:05:13.890Z,6.30
2019-01-03T12:07:43.114Z,6.60
2019-01-03T12:10:12.918Z,5.97
2019-01-03T12:12:42.136Z,6.73
2019-01-03T12:15:11.317Z,6.20
2019-01-03T12:17:59.870Z,5.97
2019-01-03T12:20:29.910Z,5.50
2019-01-03T12:22:59.528Z,5.80
2019-01-03T12:25:29.024Z,5.23
2019-01-03T12:27:58.221Z,6.00
2019-01-03T12:30:27.717Z,5.40
2019-01-03T12:32:57.194Z,4.90
2019-01-03T12:35:26.433Z,5.73
2019-01-03T12:37:55.791Z,6.07
2019-01-03T12:40:25.245Z,6.13
2019-01-03T12:42:54.465Z,6.50
2019-01-03T12:45:24.286Z,5.87
2019-01-03T12:47:54.171Z,5.93
2019-01-03T12:50:23.682Z,6.20
2019-01-03T12:52:53.127Z,4.80
2019-01-03T12:55:22.633Z,5.13
2019-01-03T12:57:52.097Z,5.20
2019-01-03T13:00:40.382Z,5.20
2019-01-03T13:03:09.862Z,4.97
2019-01-03T13:05:39.326Z,5.63
2019-01-03T13:08:09.443Z,5.10
2019-01-03T13:10:38.921Z,4.57
2019-01-03T13:13:08.552Z,5.10
2019-01-03T13:15:56.842Z,4.47
2019-01-03T13:18:26.591Z,4.50
2019-01-03T13:20:56.078Z,4.93
2019-01-03T13:23:25.310Z,4.10
2019-01-03T13:25:54.859Z,4.20
2019-01-03T13:28:24.332Z,4.57
2019-01-03T13:30:54.168Z,4.47
2019-01-03T13:33:24.032Z,4.50
2019-01-03T13:35:53.553Z,4.80
2019-01-03T13:38:22.752Z,4.63
2019-01-03T13:40:52.130Z,4.17
2019-01-03T13:43:21.642Z,4.47
2019-01-03T13:45:50.848Z,4.23
2019-01-03T13:48:20.341Z,5.20
2019-01-03T13:50:49.812Z,5.30
2019-01-03T13:53:19.785Z,4.73
2019-01-03T13:55:49.285Z,4.57
2019-01-03T13:58:18.758Z,4.67
2019-01-03T14:00:48.681Z,5.07
2019-01-03T14:03:18.166Z,4.70
2019-01-03T14:05:47.658Z,5.70
2019-01-03T14:08:17.737Z,4.40
2019-01-03T14:10:47.222Z,5.23
2019-01-03T14:13:16.696Z,4.90
2019-01-03T14:15:46.546Z,4.73
2019-01-03T14:18:16.519Z,4.80
2019-01-03T14:20:46.327Z,5.00
2019-01-03T14:23:15.817Z,5.57
2019-01-03T14:25:45.279Z,4.73
2019-01-03T14:28:14.744Z,4.90
2019-01-03T14:30:44.219Z,5.13
2019-01-03T14:33:13.424Z,5.40
2019-01-03T14:35:42.887Z,4.50
2019-01-03T14:38:12.095Z,4.57
2019-01-03T14:40:41.287Z,4.47
2019-01-03T14:43:10.668Z,4.30
2019-01-03T14:45:40.139Z,5.13
2019-01-03T14:48:09.885Z,5.03
2019-01-03T14:50:39.354Z,5.17
2019-01-03T14:53:09.372Z,5.70
2019-01-03T14:55:38.961Z,5.93
2019-01-03T14:58:09.302Z,4.90
2019-01-03T15:00:39.110Z,6.00
2019-01-03T15:03:27.328Z,5.37
2019-01-03T15:05:56.883Z,8.57
2019-01-03T15:08:26.384Z,7.53
2019-01-03T15:10:55.867Z,7.30
2019-01-03T15:13:25.410Z,5.70
2019-01-03T15:15:54.641Z,6.13
2019-01-03T15:18:24.094Z,5.40
2019-01-03T15:20:53.591Z,5.27
2019-01-03T15:23:23.052Z,5.37
2019-01-03T15:25:52.573Z,5.30
2019-01-03T15:28:22.017Z,4.77
2019-01-03T15:30:51.264Z,4.90
2019-01-03T15:33:21.016Z,4.83
2019-01-03T15:35:50.372Z,4.60
2019-01-03T15:38:19.564Z,4.33
2019-01-03T15:40:49.119Z,4.57
2019-01-03T15:43:18.938Z,4.70
2019-01-03T15:45:48.433Z,4.00
2019-01-03T15:48:22.828Z,4.37
2019-01-03T15:50:52.323Z,5.20
2019-01-03T15:53:22.050Z,5.27
2019-01-03T15:55:51.266Z,4.37
2019-01-03T15:58:21.544Z,4.23
2019-01-03T16:00:50.764Z,4.27
2019-01-03T16:03:19.958Z,4.13
2019-01-03T16:05:49.165Z,4.53
2019-01-03T16:08:18.612Z,4.30
2019-01-03T16:10:47.876Z,3.97
2019-01-03T16:13:17.323Z,4.10
2019-01-03T16:15:46.896Z,4.40
2019-01-03T16:18:16.409Z,4.20
2019-01-03T16:20:45.916Z,3.83
2019-01-03T16:23:15.101Z,4.37
2019-01-03T16:25:44.584Z,4.20
2019-01-03T16:30:49.039Z,4.47
2019-01-03T16:33:18.259Z,4.50
2019-01-03T16:35:48.267Z,4.27
2019-01-03T16:38:18.375Z,5.07
2019-01-03T16:40:47.568Z,4.00
2019-01-03T16:43:17.111Z,4.30
2019-01-03T16:45:46.324Z,4.50
2019-01-03T16:48:15.544Z,4.00
2019-01-03T16:50:44.740Z,4.07
2019-01-03T16:53:14.242Z,4.30
2019-01-03T16:55:43.452Z,3.87
2019-01-03T16:58:12.918Z,4.67
2019-01-03T17:00:42.116Z,3.90
2019-01-03T17:03:11.701Z,3.93
2019-01-03T17:05:41.162Z,4.10
2019-01-03T17:08:10.638Z,4.47
2019-01-03T17:10:40.098Z,4.20
2019-01-03T17:13:09.585Z,4.20
2019-01-03T17:15:39.423Z,4.33
2019-01-03T17:18:09.337Z,4.63
2019-01-03T17:20:38.557Z,4.50
2019-01-03T17:23:07.810Z,5.40
2019-01-03T17:25:37.027Z,6.93
2019-01-03T17:28:06.251Z,6.27
2019-01-03T17:30:36.024Z,5.90
2019-01-03T17:33:05.849Z,6.73
2019-01-03T17:35:35.327Z,7.40
2019-01-03T17:38:05.102Z,7.17
2019-01-03T17:40:34.627Z,6.03
2019-01-03T17:43:03.869Z,6.37
2019-01-03T17:45:33.404Z,5.97
2019-01-03T17:48:02.880Z,5.57
2019-01-03T17:50:36.310Z,5.20
2019-01-03T17:53:03.600Z,5.23
2019-01-03T17:55:32.930Z,5.57
2019-01-03T17:58:10.450Z,5.57
2019-01-03T18:00:41.343Z,5.70
2019-01-03T18:03:11.598Z,5.30
2019-01-03T18:05:41.089Z,4.10
2019-01-03T18:08:10.620Z,5.03
2019-01-03T18:10:39.987Z,5.70
2019-01-03T18:13:09.452Z,6.10
2019-01-03T18:15:39.088Z,4.53
2019-01-03T18:18:08.956Z,4.97
2019-01-03T18:20:38.174Z,5.17
2019-01-03T18:23:07.626Z,5.10
2019-01-03T18:25:36.926Z,4.80
2019-01-03T18:28:06.696Z,4.33
2019-01-03T18:30:36.226Z,4.37
2019-01-03T18:33:05.686Z,4.20
2019-01-03T18:35:35.180Z,4.70
2019-01-03T18:38:04.766Z,5.50
2019-01-03T18:40:34.291Z,4.00
2019-01-03T18:43:03.797Z,4.40
2019-01-03T18:45:33.574Z,4.60
2019-01-03T18:48:03.086Z,4.50
2019-01-03T18:50:32.383Z,4.23
2019-01-03T18:53:01.607Z,5.50
2019-01-03T18:55:30.842Z,5.40
2019-01-03T18:58:00.706Z,4.90
2019-01-03T19:00:30.188Z,5.23
2019-01-03T19:03:00.100Z,4.67
2019-01-03T19:05:29.339Z,4.50
2019-01-03T19:07:59.226Z,5.23
2019-01-03T19:10:28.561Z,4.40
2019-01-03T19:12:57.852Z,5.30
2019-01-03T19:15:27.298Z,5.60
2019-01-03T19:17:56.888Z,6.17
2019-01-03T19:20:26.360Z,5.70
2019-01-03T19:22:55.881Z,5.17
2019-01-03T19:25:25.076Z,5.50
2019-01-03T19:27:54.307Z,5.63
2019-01-03T19:30:23.510Z,5.60
2019-01-03T19:32:52.730Z,5.97
2019-01-03T19:35:21.991Z,6.67
2019-01-03T19:37:51.227Z,5.80
2019-01-03T19:40:20.424Z,6.40
2019-01-03T19:42:50.279Z,6.63
2019-01-03T19:45:19.454Z,7.50
2019-01-03T19:47:48.668Z,7.97
2019-01-03T19:50:20.071Z,7.87
2019-01-03T19:52:49.856Z,8.27
2019-01-03T19:55:19.116Z,6.87
2019-01-03T19:57:48.343Z,7.87
2019-01-03T20:00:17.569Z,7.00
2019-01-03T20:02:46.764Z,7.23
2019-01-03T20:05:15.971Z,7.07
2019-01-03T20:07:46.032Z,7.43
2019-01-03T20:10:15.650Z,7.07
2019-01-03T20:12:44.860Z,7.33
2019-01-03T20:15:14.530Z,7.17
2019-01-03T20:17:43.736Z,8.10
2019-01-03T20:20:13.193Z,7.07
2019-01-03T20:22:42.395Z,7.03
2019-01-03T20:25:12.563Z,7.90
2019-01-03T20:28:00.979Z,7.63
2019-01-03T20:30:30.200Z,7.03
2019-01-03T20:32:59.725Z,7.57
2019-01-03T20:35:29.002Z,6.87
2019-01-03T20:37:58.187Z,7.17
2019-01-03T20:40:27.497Z,7.47
2019-01-03T20:42:56.725Z,7.07
2019-01-03T20:45:25.947Z,7.37
2019-01-03T20:47:55.136Z,8.87
2019-01-03T20:50:24.349Z,7.73
2019-01-03T20:52:53.907Z,8.00
2019-01-03T20:55:23.410Z,7.43
2019-01-03T20:57:52.618Z,7.20
2019-01-03T21:00:22.123Z,7.27
2019-01-03T21:02:51.338Z,7.23
2019-01-03T21:05:21.061Z,7.43
2019-01-03T21:07:50.364Z,8.23
2019-01-03T21:10:19.642Z,6.60
2019-01-03T21:12:48.858Z,6.50
2019-01-03T21:15:19.872Z,6.57
2019-01-03T21:17:49.098Z,6.93
2019-01-03T21:20:18.684Z,7.00
2019-01-03T21:22:47.907Z,5.97
2019-01-03T21:25:17.655Z,6.47
2019-01-03T21:27:47.166Z,7.37
2019-01-03T21:30:18.567Z,6.40
2019-01-03T21:32:47.866Z,6.57
2019-01-03T21:35:17.061Z,6.20
2019-01-03T21:37:46.265Z,6.47
2019-01-03T21:40:15.560Z,6.60
2019-01-03T21:42:44.837Z,6.67
2019-01-03T21:45:14.092Z,6.53
2019-01-03T21:47:43.322Z,6.23
2019-01-03T21:53:21.844Z,7.20
2019-01-03T21:55:51.062Z,6.80
2019-01-03T21:58:20.285Z,6.83
2019-01-03T22:00:49.821Z,7.07
2019-01-03T22:03:19.028Z,7.23
2019-01-03T22:05:48.481Z,7.00
2019-01-03T22:08:17.690Z,6.70
2019-01-03T22:10:46.877Z,6.60
2019-01-03T22:13:16.227Z,7.00
2019-01-03T22:15:45.485Z,6.90
2019-01-03T22:18:14.993Z,6.67
2019-01-03T22:20:44.238Z,7.10
2019-01-03T22:23:13.481Z,8.40
2019-01-03T22:25:42.671Z,6.90
2019-01-03T22:28:11.878Z,7.53
2019-01-03T22:30:41.089Z,6.83
2019-01-03T22:33:10.603Z,7.70
2019-01-03T22:35:40.082Z,7.33
2019-01-03T22:38:09.275Z,7.00
2019-01-03T22:40:38.775Z,7.53
2019-01-03T22:43:08.037Z,7.50
2019-01-03T22:45:37.243Z,7.27
2019-01-03T22:48:06.425Z,6.87
2019-01-03T22:50:35.649Z,7.33
2019-01-03T22:53:05.129Z,8.00
2019-01-03T22:55:34.635Z,7.97
2019-01-03T22:58:04.163Z,8.47
2019-01-03T23:01:16.901Z,8.50
2019-01-03T23:03:46.103Z,9.00
2019-01-03T23:06:15.323Z,9.00
2019-01-03T23:08:44.519Z,9.03
2019-01-03T23:11:14.098Z,8.77
2019-01-03T23:13:43.284Z,8.77
2019-01-03T23:16:12.626Z,8.93
2019-01-03T23:18:41.811Z,8.47
2019-01-03T23:21:11.113Z,8.60
2019-01-03T23:23:40.638Z,9.43
2019-01-03T23:26:09.895Z,9.03
2019-01-03T23:28:39.422Z,9.37
2019-01-03T23:31:08.653Z,9.13
2019-01-03T23:33:37.868Z,8.40
2019-01-03T23:36:07.120Z,8.33
2019-01-03T23:38:37.151Z,9.03
2019-01-03T23:41:06.381Z,9.97
2019-01-03T23:46:12.662Z,9.80
2019-01-03T23:48:41.854Z,9.60
2019-01-03T23:51:15.046Z,9.97
2019-01-03T23:53:44.274Z,9.63
2019-01-03T23:56:13.510Z,10.30
2019-01-03T23:58:43.001Z,10.50
